Time;durP1;ratioP1;P1;durP2;ratioP2;P2;SDS_P1;SDS_P2;PMS_P1;PMS_P2;Temp;Humidity;BMP_temperature;BMP_pressure;BME280_temperature;BME280_humidity;BME280_pressure;Samples;Min_cycle;Max_cycle;Signal;HPM_P1;HPM_P2
2023/05/09 00:00:54;;;;;;;18.63;16.10;;;;;;;;;;5080746;28;21084;-59
2023/05/09 00:03:21;;;;;;;19.95;16.02;;;;;;;;;;5079606;28;20415;-59
2023/05/09 00:05:48;;;;;;;19.02;15.85;;;;;;;;;;5076873;28;20473;-59
2023/05/09 00:08:15;;;;;;;22.98;17.50;;;;;;;;;;5078485;28;20416;-59
2023/05/09 00:10:44;;;;;;;18.55;16.20;;;;;;;;;;5081197;28;20422;-58
2023/05/09 00:13:11;;;;;;;19.40;16.80;;;;;;;;;;5083017;28;20458;-59
2023/05/09 00:15:38;;;;;;;19.10;16.17;;;;;;;;;;5083754;28;20466;-58
2023/05/09 00:18:05;;;;;;;19.65;17.20;;;;;;;;;;5079407;28;20497;-58
2023/05/09 00:20:32;;;;;;;19.63;17.23;;;;;;;;;;5083009;28;20407;-58
2023/05/09 00:22:59;;;;;;;19.13;17.13;;;;;;;;;;5077615;28;20421;-57
2023/05/09 00:25:26;;;;;;;20.85;16.90;;;;;;;;;;5079830;28;20413;-58
2023/05/09 00:27:55;;;;;;;19.27;17.05;;;;;;;;;;5082823;28;20890;-58
2023/05/09 00:30:22;;;;;;;22.38;18.48;;;;;;;;;;5078350;28;20537;-57
2023/05/09 00:32:49;;;;;;;19.35;17.15;;;;;;;;;;5077410;28;20423;-56
2023/05/09 00:35:16;;;;;;;20.50;17.98;;;;;;;;;;5083362;28;20947;-58
2023/05/09 00:37:43;;;;;;;19.85;17.33;;;;;;;;;;5080399;28;20493;-57
2023/05/09 00:40:10;;;;;;;18.63;16.63;;;;;;;;;;5080662;28;20408;-58
2023/05/09 00:42:37;;;;;;;21.25;17.38;;;;;;;;;;5082793;28;20410;-59
2023/05/09 00:45:06;;;;;;;20.95;17.70;;;;;;;;;;5082812;28;20413;-57
2023/05/09 00:47:34;;;;;;;19.35;17.33;;;;;;;;;;5078169;28;20414;-59
2023/05/09 00:50:02;;;;;;;21.90;18.88;;;;;;;;;;5081203;28;20475;-58
2023/05/09 00:52:30;;;;;;;19.92;17.77;;;;;;;;;;5078448;28;20501;-57
2023/05/09 00:54:57;;;;;;;23.17;18.67;;;;;;;;;;5074075;28;20424;-58
2023/05/09 00:57:25;;;;;;;20.27;17.67;;;;;;;;;;5080094;28;20420;-56
2023/05/09 00:59:52;;;;;;;22.38;18.00;;;;;;;;;;5082147;28;20402;-59
2023/05/09 01:02:21;;;;;;;20.65;17.45;;;;;;;;;;5076739;28;20418;-59
2023/05/09 01:04:48;;;;;;;22.05;18.55;;;;;;;;;;5077262;28;20408;-57
2023/05/09 01:07:19;;;;;;;23.10;18.90;;;;;;;;;;5079156;28;20974;-58
2023/05/09 01:09:51;;;;;;;22.60;19.10;;;;;;;;;;5076789;28;20423;-56
2023/05/09 01:12:26;;;;;;;21.92;19.35;;;;;;;;;;5080340;28;20418;-58
2023/05/09 01:14:57;;;;;;;21.27;18.00;;;;;;;;;;5078621;28;20873;-57
2023/05/09 01:17:30;;;;;;;21.90;18.50;;;;;;;;;;5077908;28;20418;-58
2023/05/09 01:20:00;;;;;;;20.60;17.65;;;;;;;;;;5081296;28;20474;-57
2023/05/09 01:22:30;;;;;;;21.75;18.48;;;;;;;;;;5074899;28;20413;-56
2023/05/09 01:25:12;;;;;;;22.50;19.08;;;;;;;;;;5080051;28;20471;-57
2023/05/09 01:27:44;;;;;;;21.00;18.65;;;;;;;;;;5080050;28;20957;-57
2023/05/09 01:30:13;;;;;;;21.58;18.77;;;;;;;;;;5074478;28;20427;-59
2023/05/09 01:32:40;;;;;;;21.15;18.08;;;;;;;;;;5075604;28;20442;-58
2023/05/09 01:35:09;;;;;;;23.37;18.60;;;;;;;;;;5076366;28;20465;-57
2023/05/09 01:37:40;;;;;;;21.48;18.77;;;;;;;;;;5072890;28;20796;-57
2023/05/09 01:40:08;;;;;;;24.77;19.38;;;;;;;;;;5075926;28;20403;-57
2023/05/09 01:42:38;;;;;;;24.25;18.77;;;;;;;;;;5080490;28;20407;-56
2023/05/09 01:45:07;;;;;;;22.97;19.17;;;;;;;;;;5082565;28;20406;-57
2023/05/09 01:47:35;;;;;;;24.83;19.33;;;;;;;;;;5078596;28;20410;-57
2023/05/09 01:50:03;;;;;;;23.77;18.45;;;;;;;;;;5078741;28;20434;-58
2023/05/09 01:52:30;;;;;;;23.42;18.48;;;;;;;;;;5075469;28;20978;-56
2023/05/09 01:54:58;;;;;;;21.60;18.05;;;;;;;;;;5072242;28;20477;-56
2023/05/09 01:57:26;;;;;;;22.45;19.13;;;;;;;;;;5080771;28;20463;-58
2023/05/09 01:59:53;;;;;;;22.60;19.55;;;;;;;;;;5081967;28;20410;-58
2023/05/09 02:02:20;;;;;;;21.92;19.02;;;;;;;;;;5074297;28;20414;-58
2023/05/09 02:04:49;;;;;;;22.48;19.23;;;;;;;;;;5075544;28;20419;-57
2023/05/09 02:07:16;;;;;;;24.38;19.35;;;;;;;;;;5076820;28;20444;-57
2023/05/09 02:09:43;;;;;;;22.85;18.67;;;;;;;;;;5080318;28;20419;-57
2023/05/09 02:12:10;;;;;;;23.05;19.67;;;;;;;;;;5079312;28;20941;-58
2023/05/09 02:14:37;;;;;;;24.77;19.90;;;;;;;;;;5081376;28;20414;-59
2023/05/09 02:17:05;;;;;;;25.17;20.52;;;;;;;;;;5079007;28;20479;-57
2023/05/09 02:19:33;;;;;;;25.23;19.83;;;;;;;;;;5074753;28;20804;-56
2023/05/09 02:22:03;;;;;;;23.75;20.13;;;;;;;;;;5078777;28;20422;-58
2023/05/09 02:24:32;;;;;;;25.23;20.52;;;;;;;;;;5075691;28;20423;-58
2023/05/09 02:26:59;;;;;;;26.35;21.45;;;;;;;;;;5080211;28;20418;-59
2023/05/09 02:29:30;;;;;;;25.70;20.50;;;;;;;;;;5078509;28;20423;-58
2023/05/09 02:31:59;;;;;;;25.77;20.73;;;;;;;;;;5079376;28;20429;-58
2023/05/09 02:34:27;;;;;;;24.23;20.17;;;;;;;;;;5083223;28;20476;-59
2023/05/09 02:36:54;;;;;;;24.60;21.20;;;;;;;;;;5082104;28;20528;-58
2023/05/09 02:39:22;;;;;;;24.30;20.15;;;;;;;;;;5083208;28;20473;-58
2023/05/09 02:41:49;;;;;;;25.60;21.05;;;;;;;;;;5085010;28;20467;-58
2023/05/09 02:44:16;;;;;;;25.87;21.10;;;;;;;;;;5085194;28;20414;-58
2023/05/09 02:46:43;;;;;;;27.25;21.90;;;;;;;;;;5081789;28;20420;-58
2023/05/09 02:49:10;;;;;;;26.02;21.15;;;;;;;;;;5083710;28;20406;-59
2023/05/09 02:51:37;;;;;;;25.10;20.48;;;;;;;;;;5081696;28;20415;-58
2023/05/09 02:54:05;;;;;;;25.70;21.10;;;;;;;;;;5076273;28;20459;-58
2023/05/09 02:56:33;;;;;;;25.92;22.17;;;;;;;;;;5079514;28;20420;-59
2023/05/09 02:59:00;;;;;;;27.13;22.33;;;;;;;;;;5079700;28;20411;-58
2023/05/09 03:01:27;;;;;;;24.85;21.60;;;;;;;;;;5083178;28;20961;-59
2023/05/09 03:03:54;;;;;;;27.42;21.77;;;;;;;;;;5081539;28;20785;-58
2023/05/09 03:06:21;;;;;;;28.60;23.17;;;;;;;;;;5081419;28;20470;-57
2023/05/09 03:08:48;;;;;;;26.98;22.25;;;;;;;;;;5083148;28;20413;-56
2023/05/09 03:11:17;;;;;;;26.27;20.88;;;;;;;;;;5082454;28;21227;-58
2023/05/09 03:13:45;;;;;;;25.42;21.30;;;;;;;;;;5082681;28;20407;-58
2023/05/09 03:16:14;;;;;;;27.15;21.73;;;;;;;;;;5078778;28;20453;-56
2023/05/09 03:18:41;;;;;;;26.77;22.38;;;;;;;;;;5075454;28;20441;-58
2023/05/09 03:21:08;;;;;;;28.30;22.50;;;;;;;;;;5083924;28;20406;-56
2023/05/09 03:23:35;;;;;;;29.02;23.15;;;;;;;;;;5080855;28;20408;-58
2023/05/09 03:26:02;;;;;;;28.48;21.48;;;;;;;;;;5084186;28;20969;-57
2023/05/09 03:28:29;;;;;;;27.70;22.08;;;;;;;;;;5082720;28;20411;-57
2023/05/09 03:30:58;;;;;;;28.93;22.43;;;;;;;;;;5080235;28;20472;-57
2023/05/09 03:33:24;;;;;;;29.13;23.33;;;;;;;;;;5077351;28;20441;-56
2023/05/09 03:35:51;;;;;;;28.63;22.38;;;;;;;;;;5082904;28;20415;-57
2023/05/09 03:38:18;;;;;;;31.77;23.55;;;;;;;;;;5080019;28;20475;-57
2023/05/09 03:40:45;;;;;;;29.58;24.08;;;;;;;;;;5082894;28;20408;-58
2023/05/09 03:43:12;;;;;;;30.30;23.65;;;;;;;;;;5080863;28;20799;-56
2023/05/09 03:45:39;;;;;;;27.90;22.90;;;;;;;;;;5078200;28;20412;-58
2023/05/09 03:48:08;;;;;;;27.70;22.58;;;;;;;;;;5083406;28;20416;-58
2023/05/09 03:50:35;;;;;;;27.33;22.50;;;;;;;;;;5084987;28;20512;-58
2023/05/09 03:53:02;;;;;;;27.23;22.30;;;;;;;;;;5077833;28;20414;-60
2023/05/09 03:55:29;;;;;;;26.87;21.57;;;;;;;;;;5082069;28;20469;-58
2023/05/09 03:57:56;;;;;;;28.02;22.33;;;;;;;;;;5075339;28;20481;-56
2023/05/09 04:00:25;;;;;;;27.42;22.27;;;;;;;;;;5075419;28;20423;-58
2023/05/09 04:02:52;;;;;;;26.27;22.33;;;;;;;;;;5071174;28;20780;-58
2023/05/09 04:05:20;;;;;;;27.50;22.85;;;;;;;;;;5078822;28;20493;-58
2023/05/09 04:07:48;;;;;;;29.17;22.63;;;;;;;;;;5075591;28;20817;-60
2023/05/09 04:10:14;;;;;;;27.08;22.35;;;;;;;;;;5082759;28;20475;-58
2023/05/09 04:12:42;;;;;;;28.48;22.00;;;;;;;;;;5083791;28;20410;-57
2023/05/09 04:15:09;;;;;;;28.70;23.27;;;;;;;;;;5082230;28;20464;-57
2023/05/09 04:17:36;;;;;;;28.48;23.25;;;;;;;;;;5077400;28;20458;-56
2023/05/09 04:20:05;;;;;;;29.55;23.48;;;;;;;;;;5083943;28;20397;-57
2023/05/09 04:22:33;;;;;;;28.30;23.35;;;;;;;;;;5079196;28;20429;-59
2023/05/09 04:25:00;;;;;;;28.03;22.70;;;;;;;;;;5083595;28;20445;-58
2023/05/09 04:27:27;;;;;;;31.08;23.92;;;;;;;;;;5079695;28;20442;-61
2023/05/09 04:29:54;;;;;;;28.73;22.95;;;;;;;;;;5079685;28;20418;-60
2023/05/09 04:32:22;;;;;;;27.92;23.00;;;;;;;;;;5079803;28;20446;-60
2023/05/09 04:34:49;;;;;;;30.45;23.88;;;;;;;;;;5083329;28;20952;-59
2023/05/09 04:37:16;;;;;;;29.40;23.90;;;;;;;;;;5079052;28;20487;-60
2023/05/09 04:39:44;;;;;;;31.10;24.20;;;;;;;;;;5082340;28;20446;-61
2023/05/09 04:42:11;;;;;;;32.00;25.00;;;;;;;;;;5080806;28;20410;-61
2023/05/09 04:44:38;;;;;;;30.48;23.38;;;;;;;;;;5082583;28;20474;-58
2023/05/09 04:47:05;;;;;;;31.52;24.27;;;;;;;;;;5071593;28;20471;-61
2023/05/09 04:49:32;;;;;;;29.63;24.00;;;;;;;;;;5076065;28;20414;-58
2023/05/09 04:51:59;;;;;;;29.17;24.65;;;;;;;;;;5078677;28;20486;-59
2023/05/09 04:54:26;;;;;;;31.20;24.33;;;;;;;;;;5079996;28;20407;-61
2023/05/09 04:56:54;;;;;;;31.75;23.85;;;;;;;;;;5082548;28;20420;-60
2023/05/09 04:59:21;;;;;;;30.77;24.13;;;;;;;;;;5083681;28;20436;-61
2023/05/09 05:01:48;;;;;;;30.55;23.20;;;;;;;;;;5079719;28;20533;-58
2023/05/09 05:04:15;;;;;;;28.05;23.88;;;;;;;;;;5080965;28;20406;-60
2023/05/09 05:06:42;;;;;;;30.73;23.73;;;;;;;;;;5078381;28;20473;-61
2023/05/09 05:09:09;;;;;;;27.98;23.77;;;;;;;;;;5081591;28;20440;-60
2023/05/09 05:11:36;;;;;;;28.50;23.25;;;;;;;;;;5080449;28;20419;-60
2023/05/09 05:14:05;;;;;;;28.55;24.38;;;;;;;;;;5082323;28;20462;-60
2023/05/09 05:16:32;;;;;;;29.67;23.88;;;;;;;;;;5082315;28;20410;-60
2023/05/09 05:18:59;;;;;;;29.57;24.00;;;;;;;;;;5080020;28;20488;-58
2023/05/09 05:21:26;;;;;;;32.65;24.60;;;;;;;;;;5080057;28;20404;-61
2023/05/09 05:23:53;;;;;;;27.95;21.92;;;;;;;;;;5080231;28;20417;-60
2023/05/09 05:26:20;;;;;;;27.67;22.52;;;;;;;;;;5081679;28;20441;-61
2023/05/09 05:28:47;;;;;;;27.60;22.70;;;;;;;;;;5082223;28;20973;-61
2023/05/09 05:31:16;;;;;;;25.02;22.13;;;;;;;;;;5076420;28;20447;-60
2023/05/09 05:33:43;;;;;;;27.50;22.77;;;;;;;;;;5081587;28;20974;-61
2023/05/09 05:36:10;;;;;;;26.30;21.90;;;;;;;;;;5079749;28;20483;-60
2023/05/09 05:38:37;;;;;;;28.87;22.73;;;;;;;;;;5081163;28;20471;-60
2023/05/09 05:41:04;;;;;;;28.20;23.98;;;;;;;;;;5082476;28;20400;-61
2023/05/09 05:43:31;;;;;;;29.05;23.33;;;;;;;;;;5080424;28;20410;-60
2023/05/09 05:45:58;;;;;;;28.80;23.48;;;;;;;;;;5080073;28;20412;-61
2023/05/09 05:48:26;;;;;;;28.33;22.70;;;;;;;;;;5082248;28;20413;-60
2023/05/09 05:50:53;;;;;;;28.60;22.25;;;;;;;;;;5080943;28;20433;-58
2023/05/09 05:53:21;;;;;;;25.80;22.00;;;;;;;;;;5079790;28;20411;-60
2023/05/09 05:55:48;;;;;;;27.75;21.55;;;;;;;;;;5081451;28;20436;-59
2023/05/09 05:58:15;;;;;;;27.17;21.60;;;;;;;;;;5082255;28;20414;-61
2023/05/09 06:00:42;;;;;;;23.33;20.27;;;;;;;;;;5078539;28;20404;-60
2023/05/09 06:03:12;;;;;;;24.50;20.55;;;;;;;;;;5080774;28;20760;-61
2023/05/09 06:05:43;;;;;;;23.17;19.63;;;;;;;;;;5076489;28;20407;-59
2023/05/09 06:08:10;;;;;;;23.60;20.45;;;;;;;;;;5079915;28;20418;-61
2023/05/09 06:10:37;;;;;;;24.65;20.10;;;;;;;;;;5081964;28;20475;-61
2023/05/09 06:13:04;;;;;;;23.77;19.70;;;;;;;;;;5080802;28;20408;-60
2023/05/09 06:15:31;;;;;;;24.25;19.98;;;;;;;;;;5079118;28;20414;-60
2023/05/09 06:17:58;;;;;;;24.88;20.15;;;;;;;;;;5080999;28;20846;-59
2023/05/09 06:20:26;;;;;;;25.55;20.50;;;;;;;;;;5081636;28;20414;-60
2023/05/09 06:22:54;;;;;;;27.17;20.88;;;;;;;;;;5075799;28;20498;-60
2023/05/09 06:25:21;;;;;;;23.65;20.15;;;;;;;;;;5080114;28;20407;-58
2023/05/09 06:27:48;;;;;;;21.60;18.17;;;;;;;;;;5082090;28;20472;-61
2023/05/09 06:30:15;;;;;;;24.63;19.23;;;;;;;;;;5080911;28;20413;-61
2023/05/09 06:32:42;;;;;;;22.25;19.27;;;;;;;;;;5081913;28;20422;-61
2023/05/09 06:35:09;;;;;;;22.27;18.55;;;;;;;;;;5080025;28;20445;-58
2023/05/09 06:37:36;;;;;;;20.90;18.38;;;;;;;;;;5079905;28;20741;-61
2023/05/09 06:40:05;;;;;;;22.52;18.17;;;;;;;;;;5082020;28;20808;-62
2023/05/09 06:42:32;;;;;;;21.52;18.70;;;;;;;;;;5081169;28;20785;-59
2023/05/09 06:44:59;;;;;;;20.67;18.35;;;;;;;;;;5078990;28;20777;-59
2023/05/09 06:47:26;;;;;;;21.38;19.02;;;;;;;;;;5081385;28;20774;-60
2023/05/09 06:49:53;;;;;;;20.63;18.25;;;;;;;;;;5081720;28;20413;-60
2023/05/09 06:52:20;;;;;;;20.60;18.08;;;17.60;99.90;;;;;;5081863;28;20425;-61
2023/05/09 06:54:46;;;;;;;23.05;18.60;;;17.80;99.90;;;;;;5080452;28;20429;-60
2023/05/09 06:57:15;;;;;;;21.35;17.05;;;17.80;99.90;;;;;;5081780;28;20414;-60
2023/05/09 06:59:43;;;;;;;19.35;16.92;;;17.90;99.90;;;;;;5079220;28;20749;-58
2023/05/09 07:02:10;;;;;;;17.90;16.00;;;18.00;99.90;;;;;;5081694;28;20496;-61
2023/05/09 07:04:36;;;;;;;19.70;16.88;;;17.90;99.90;;;;;;5079528;28;20412;-61
2023/05/09 07:07:03;;;;;;;17.65;15.85;;;17.80;99.90;;;;;;5079072;28;20957;-60
2023/05/09 07:09:30;;;;;;;18.58;15.50;;;18.00;99.90;;;;;;5081420;28;20410;-61
2023/05/09 07:11:56;;;;;;;17.52;15.70;;;18.20;99.90;;;;;;5079666;28;20430;-62
2023/05/09 07:14:24;;;;;;;16.83;15.02;;;18.20;99.90;;;;;;5079089;28;20415;-61
2023/05/09 07:16:51;;;;;;;16.17;14.48;;;18.20;99.90;;;;;;5080774;28;20479;-60
2023/05/09 07:19:17;;;;;;;16.52;14.02;;;18.30;99.90;;;;;;5083553;28;20410;-61
2023/05/09 07:21:44;;;;;;;17.48;14.50;;;18.40;99.90;;;;;;5082314;28;20473;-61
2023/05/09 07:24:10;;;;;;;16.58;14.70;;;18.40;99.90;;;;;;5082631;28;20773;-61
2023/05/09 07:26:37;;;;;;;16.05;14.13;;;;;;;;;;5082139;28;20477;-60
2023/05/09 07:29:04;;;;;;;16.60;13.73;;;18.50;99.90;;;;;;5085129;28;20419;-61
2023/05/09 07:31:32;;;;;;;18.58;13.57;;;18.60;99.90;;;;;;5082939;28;20482;-60
2023/05/09 07:33:59;;;;;;;14.98;13.30;;;;;;;;;;5084584;28;20406;-60
2023/05/09 07:36:25;;;;;;;15.75;14.00;;;18.50;99.90;;;;;;5082976;28;20420;-61
2023/05/09 07:38:53;;;;;;;18.10;13.45;;;18.40;99.90;;;;;;5082115;28;20420;-61
2023/05/09 07:41:19;;;;;;;14.68;13.02;;;18.40;99.90;;;;;;5084110;28;20409;-60
2023/05/09 07:43:46;;;;;;;16.15;14.43;;;18.40;99.90;;;;;;5083864;28;20410;-59
2023/05/09 07:46:13;;;;;;;14.88;13.38;;;;;;;;;;5081629;28;20419;-61
2023/05/09 07:48:43;;;;;;;15.23;13.02;;;18.00;99.90;;;;;;5083106;28;20406;-59
2023/05/09 07:51:10;;;;;;;13.63;12.20;;;18.10;99.90;;;;;;5084307;28;20922;-60
2023/05/09 07:53:36;;;;;;;13.10;11.70;;;18.30;99.90;;;;;;5082382;28;20415;-61
2023/05/09 07:56:05;;;;;;;12.47;11.17;;;18.50;99.90;;;;;;5081764;28;20422;-61
2023/05/09 07:58:32;;;;;;;13.57;11.57;;;18.70;99.90;;;;;;5080484;28;20487;-60
2023/05/09 08:00:58;;;;;;;11.52;10.32;;;18.50;99.90;;;;;;5083300;28;20894;-58
2023/05/09 08:03:25;;;;;;;11.70;10.50;;;18.40;99.90;;;;;;5081283;28;20485;-61
2023/05/09 08:05:55;;;;;;;11.10;10.00;;;18.40;99.90;;;;;;5083123;28;20470;-59
2023/05/09 08:08:22;;;;;;;11.77;9.88;;;18.40;99.90;;;;;;5083869;28;20444;-61
2023/05/09 08:10:48;;;;;;;11.65;9.75;;;18.40;99.90;;;;;;5082213;28;20788;-60
2023/05/09 08:13:15;;;;;;;10.98;9.85;;;18.00;99.90;;;;;;5081684;28;20477;-58
2023/05/09 08:15:41;;;;;;;10.73;9.18;;;17.90;99.90;;;;;;5084098;28;20413;-60
2023/05/09 08:18:09;;;;;;;12.30;9.20;;;17.90;99.90;;;;;;5082227;28;20415;-59
2023/05/09 08:20:36;;;;;;;10.90;9.00;;;18.00;99.90;;;;;;5080884;28;21124;-61
2023/05/09 08:23:04;;;;;;;10.40;9.30;;;18.10;99.90;;;;;;5082980;28;20406;-60
2023/05/09 08:25:31;;;;;;;9.77;8.77;;;;;;;;;;5083522;28;20414;-60
2023/05/09 08:27:58;;;;;;;10.50;8.95;;;18.20;99.90;;;;;;5077886;28;20411;-61
2023/05/09 08:30:25;;;;;;;8.88;8.07;;;;;;;;;;5081596;28;20411;-58
2023/05/09 08:32:51;;;;;;;9.15;8.15;;;18.20;99.90;;;;;;5083062;28;20447;-60
2023/05/09 08:35:18;;;;;;;8.30;7.50;;;18.70;99.90;;;;;;5081510;28;20477;-61
2023/05/09 08:37:46;;;;;;;8.73;7.70;;;18.90;99.90;;;;;;5080265;28;20471;-62
2023/05/09 08:40:15;;;;;;;8.18;7.35;;;18.90;99.90;;;;;;5077602;28;20443;-60
2023/05/09 08:42:44;;;;;;;7.57;6.72;;;19.20;99.90;;;;;;5081028;28;20407;-61
2023/05/09 08:45:13;;;;;;;7.25;6.07;;;19.60;99.90;;;;;;5077212;28;20458;-59
2023/05/09 08:47:41;;;;;;;6.80;6.10;;;20.00;92.10;;;;;;5080721;28;20408;-61
2023/05/09 08:50:09;;;;;;;7.13;6.38;;;20.10;1.00;;;;;;5083228;28;20442;-60
2023/05/09 08:52:35;;;;;;;7.18;6.47;;;19.90;99.90;;;;;;5082108;28;20792;-59
2023/05/09 08:55:03;;;;;;;7.28;6.22;;;19.80;20.80;;;;;;5080492;28;20473;-60
2023/05/09 08:57:33;;;;;;;7.23;5.90;;;20.00;1.00;;;;;;5081789;28;20496;-59
2023/05/09 09:00:00;;;;;;;6.47;5.63;;;19.70;1.00;;;;;;5082960;28;20418;-60
2023/05/09 09:02:27;;;;;;;8.70;6.10;;;20.10;99.90;;;;;;5080997;28;20465;-61
2023/05/09 09:04:54;;;;;;;7.22;6.20;;;20.20;99.90;;;;;;5080827;28;20438;-60
2023/05/09 09:07:22;;;;;;;6.60;5.97;;;19.80;1.00;;;;;;5082625;28;20480;-60
2023/05/09 09:09:49;;;;;;;8.02;6.50;;;19.60;1.00;;;;;;5081821;28;20401;-60
2023/05/09 09:12:17;;;;;;;7.60;6.80;;;19.80;26.50;;;;;;5079966;28;20450;-59
2023/05/09 09:14:50;;;;;;;7.78;5.88;;;20.10;99.90;;;;;;5081408;28;20410;-60
2023/05/09 09:17:20;;;;;;;7.00;6.30;;;20.20;1.00;;;;;;5082350;28;20413;-60
2023/05/09 09:19:49;;;;;;;7.00;6.00;;;;;;;;;;5081498;28;20941;-60
2023/05/09 09:22:19;;;;;;;6.90;6.30;;;;;;;;;;5080438;28;20495;-61
2023/05/09 09:24:46;;;;;;;8.40;6.22;;;;;;;;;;5081087;28;20421;-60
2023/05/09 09:27:13;;;;;;;7.45;6.25;;;;;;;;;;5082648;28;20817;-60
2023/05/09 09:29:40;;;;;;;6.72;6.10;;;;;;;;;;5080431;28;20419;-57
2023/05/09 09:32:08;;;;;;;7.55;6.13;;;;;;;;;;5082166;28;20471;-60
2023/05/09 09:34:35;;;;;;;7.40;6.10;;;;;;;;;;5076504;28;20796;-58
2023/05/09 09:37:02;;;;;;;6.97;5.60;;;;;;;;;;5079960;28;20415;-61
2023/05/09 09:39:29;;;;;;;6.40;5.35;;;;;;;;;;5083200;28;20801;-60
2023/05/09 09:41:56;;;;;;;7.05;5.10;;;;;;;;;;5081618;28;20411;-60
2023/05/09 09:44:23;;;;;;;5.68;4.70;;;;;;;;;;5079453;28;20415;-60
2023/05/09 09:46:51;;;;;;;5.28;4.78;;;;;;;;;;5081580;28;20475;-61
2023/05/09 09:49:21;;;;;;;4.95;4.07;;;;;;;;;;5081794;28;20432;-60
2023/05/09 09:51:51;;;;;;;5.40;4.10;;;;;;;;;;5076574;28;20419;-60
2023/05/09 09:54:18;;;;;;;6.10;4.00;;;;;;;;;;5080754;28;20411;-60
2023/05/09 09:56:46;;;;;;;5.65;4.10;;;;;;;;;;5081842;28;20801;-59
2023/05/09 09:59:14;;;;;;;6.57;3.88;;;;;;;;;;5072488;28;20477;-58
2023/05/09 10:01:54;;;;;;;5.20;3.40;;;;;;;;;;5071936;28;20426;-58
2023/05/09 10:04:22;;;;;;;3.90;3.53;;;;;;;;;;5080544;28;20477;-61
2023/05/09 10:06:53;;;;;;;3.90;3.50;;;;;;;;;;5080781;28;20411;-59
2023/05/09 10:09:21;;;;;;;5.43;3.63;;;;;;;;;;5080633;28;20440;-60
2023/05/09 10:11:49;;;;;;;3.72;3.20;;;;;;;;;;5080395;28;20416;-60
2023/05/09 10:14:16;;;;;;;5.13;3.70;;;;;;;;;;5080018;28;20408;-61
2023/05/09 10:16:44;;;;;;;5.20;3.28;;;;;;;;;;5079491;28;20844;-59
2023/05/09 10:19:12;;;;;;;4.75;3.85;;;;;;;;;;5079977;28;20953;-60
2023/05/09 10:21:41;;;;;;;4.10;3.60;;;;;;;;;;5082126;28;20743;-60
2023/05/09 10:24:09;;;;;;;4.15;3.75;;;;;;;;;;5080976;28;20757;-60
2023/05/09 10:26:38;;;;;;;5.72;3.80;;;;;;;;;;5079073;28;20506;-60
2023/05/09 10:29:08;;;;;;;3.53;3.22;;;;;;;;;;5083157;28;20763;-61
2023/05/09 10:31:37;;;;;;;4.80;3.83;;;;;;;;;;5078909;28;20415;-60
2023/05/09 10:34:10;;;;;;;5.80;3.57;;;;;;;;;;5080581;28;20478;-61
2023/05/09 10:36:37;;;;;;;3.92;3.45;;;;;;;;;;5081261;28;20439;-59
2023/05/09 10:39:06;;;;;;;5.30;3.70;;;;;;;;;;5080692;28;20476;-61
2023/05/09 10:41:33;;;;;;;6.07;3.63;;;;;;;;;;5079084;28;20896;-60
2023/05/09 10:44:01;;;;;;;4.75;3.22;;;;;;;;;;5080470;28;20406;-60
2023/05/09 10:46:28;;;;;;;4.25;3.53;;;;;;;;;;5081326;28;20413;-61
2023/05/09 10:48:55;;;;;;;7.68;3.58;;;;;;;;;;5079325;28;20465;-60
2023/05/09 10:51:23;;;;;;;4.45;3.10;;;;;;;;;;5080153;28;20419;-61
2023/05/09 10:53:52;;;;;;;4.67;3.47;;;;;;;;;;5085648;28;20417;-61
2023/05/09 10:56:29;;;;;;;4.27;3.10;;;;;;;;;;5084221;28;20436;-61
2023/05/09 10:58:56;;;;;;;4.27;3.10;;;;;;;;;;5081736;28;20412;-61
2023/05/09 11:01:35;;;;;;;3.60;3.17;;;;;;;;;;5083003;28;20451;-60
2023/05/09 11:04:03;;;;;;;5.30;2.90;;;;;;;;;;5082367;28;20881;-61
2023/05/09 11:06:47;;;;;;;3.67;3.00;;;;;;;;;;5082552;28;20407;-60
2023/05/09 11:09:26;;;;;;;7.03;3.50;;;;;;;;;;5082464;28;20818;-61
2023/05/09 11:11:56;;;;;;;5.05;3.17;;;;;;;;;;5082179;28;20872;-60
2023/05/09 11:14:29;;;;;;;4.88;2.95;;;;;;;;;;5083894;28;20525;-60
2023/05/09 11:17:00;;;;;;;5.25;3.00;;;;;;;;;;5084601;28;20414;-60
2023/05/09 11:19:37;;;;;;;4.68;2.83;;;;;;;;;;5084077;28;20820;-60
2023/05/09 11:22:11;;;;;;;4.80;2.60;;;;;;;;;;5080176;28;20471;-60
2023/05/09 11:24:38;;;;;;;3.42;2.47;;;;;;;;;;5082424;28;20411;-61
2023/05/09 11:27:14;;;;;;;3.67;2.47;;;;;;;;;;5085624;28;20520;-60
2023/05/09 11:29:46;;;;;;;4.03;3.00;;;;;;;;;;5080712;28;20407;-60
2023/05/09 11:32:15;;;;;;;3.50;3.10;;;;;;;;;;5082175;28;20433;-61
2023/05/09 11:34:43;;;;;;;5.65;2.90;;;;;;;;;;5078966;28;20399;-61
2023/05/09 11:37:11;;;;;;;3.97;2.78;;;;;;;;;;5076891;28;20939;-63
2023/05/09 11:39:53;;;;;;;2.90;2.60;;;;;;;;;;5077352;28;20469;-65
2023/05/09 11:42:21;;;;;;;3.72;2.60;;;;;;;;;;5082225;28;20410;-65
2023/05/09 11:44:48;;;;;;;3.28;2.20;;;;;;;;;;5082646;28;20886;-65
2023/05/09 11:47:15;;;;;;;4.32;2.20;;;;;;;;;;5081183;28;20416;-65
2023/05/09 11:49:43;;;;;;;3.45;2.38;;;;;;;;;;5081753;28;20414;-65
2023/05/09 11:52:10;;;;;;;3.05;2.20;;;;;;;;;;5078543;28;20759;-64
2023/05/09 11:54:38;;;;;;;3.15;2.22;;;;;;;;;;5081496;28;20465;-64
2023/05/09 11:57:05;;;;;;;4.13;2.20;;;;;;;;;;5084904;28;20431;-64
2023/05/09 11:59:35;;;;;;;2.70;2.20;;;;;;;;;;5084208;28;20830;-63
2023/05/09 12:02:06;;;;;;;4.88;2.45;;;;;;;;;;5086896;28;20422;-63
2023/05/09 12:04:33;;;;;;;3.08;2.58;;;;;;;;;;5081226;28;20895;-62
2023/05/09 12:07:00;;;;;;;5.65;3.03;;;;;;;;;;5078081;28;20427;-64
2023/05/09 12:09:30;;;;;;;6.82;2.80;;;;;;;;;;5084153;28;20889;-66
2023/05/09 12:11:57;;;;;;;4.88;3.10;;;;;;;;;;5078469;28;20844;-63
2023/05/09 12:14:27;;;;;;;4.70;2.93;;;;;;;;;;5069982;28;20496;-63
2023/05/09 12:16:56;;;;;;;3.67;2.95;;;;;;;;;;5079672;28;20422;-67
2023/05/09 12:19:24;;;;;;;4.43;3.40;;;;;;;;;;5077248;28;20499;-62
2023/05/09 12:21:55;;;;;;;4.03;2.95;;;;;;;;;;5084247;28;20419;-63
2023/05/09 12:24:22;;;;;;;3.50;2.60;;;;;;;;;;5075193;28;20421;-64
2023/05/09 12:26:50;;;;;;;4.60;2.97;;;20.00;99.90;;;;;;5081787;28;20416;-63
2023/05/09 12:29:17;;;;;;;3.55;2.95;;;21.50;1.00;;;;;;5085966;28;20817;-64
2023/05/09 12:31:44;;;;;;;3.47;2.75;;;21.60;99.90;;;;;;5082388;28;20884;-63
2023/05/09 12:34:12;;;;;;;4.00;2.70;;;21.70;99.90;;;;;;5081654;28;20505;-63
2023/05/09 12:36:39;;;;;;;4.55;2.60;;;22.00;99.90;;;;;;5083557;28;20812;-63
2023/05/09 12:39:09;;;;;;;3.63;2.50;;;22.20;99.90;;;;;;5077518;28;20516;-64
2023/05/09 12:41:42;;;;;;;4.10;2.72;;;21.90;99.90;;;;;;5080234;28;20499;-64
2023/05/09 12:44:09;;;;;;;5.72;2.85;;;22.00;99.90;;;;;;5081163;28;20413;-62
2023/05/09 12:46:36;;;;;;;3.85;2.42;;;22.10;99.90;;;;;;5078577;28;20502;-62
2023/05/09 12:49:02;;;;;;;3.22;2.80;;;22.00;99.90;;;;;;5084791;28;20418;-63
2023/05/09 12:51:30;;;;;;;3.60;2.30;;;21.80;99.90;;;;;;5079880;28;20429;-65
2023/05/09 12:54:04;;;;;;;3.50;2.30;;;21.90;99.90;;;;;;5076956;28;20427;-69
2023/05/09 12:56:33;;;;;;;4.38;1.90;;;21.70;99.90;;;;;;5080857;28;20451;-64
2023/05/09 12:59:00;;;;;;;2.85;2.10;;;21.40;99.90;;;;;;5083643;28;20469;-65
2023/05/09 13:01:28;;;;;;;4.15;1.90;;;21.70;99.90;;;;;;5080463;28;20464;-62
2023/05/09 13:04:02;;;;;;;3.65;2.15;;;21.80;99.90;;;;;;5078846;28;20408;-63
2023/05/09 13:06:30;;;;;;;3.55;1.90;;;22.10;99.90;;;;;;5078393;28;20416;-64
2023/05/09 13:08:59;;;;;;;3.28;2.30;;;22.10;99.90;;;;;;5075591;28;20424;-62
2023/05/09 13:11:25;;;;;;;2.80;1.80;;;21.90;99.90;;;;;;5080963;28;20447;-63
2023/05/09 13:13:53;;;;;;;2.42;1.90;;;21.80;99.90;;;;;;5081696;28;20426;-63
2023/05/09 13:16:20;;;;;;;3.15;1.95;;;21.90;99.90;;;;;;5080089;28;20958;-63
2023/05/09 13:18:47;;;;;;;2.67;2.10;;;22.10;99.90;;;;;;5072610;28;20439;-64
2023/05/09 13:21:14;;;;;;;2.40;2.03;;;21.90;99.90;;;;;;5081656;28;20459;-62
2023/05/09 13:23:43;;;;;;;2.72;1.90;;;22.00;99.90;;;;;;5079249;28;20423;-62
2023/05/09 13:26:10;;;;;;;2.67;2.03;;;22.00;99.90;;;;;;5075815;28;20821;-62
2023/05/09 13:28:37;;;;;;;2.60;2.10;;;22.20;99.90;;;;;;5079981;28;20416;-63
2023/05/09 13:31:04;;;;;;;2.83;2.15;;;22.20;99.90;;;;;;5081495;28;20414;-63
2023/05/09 13:33:30;;;;;;;5.78;2.33;;;22.30;99.90;;;;;;5080765;28;20428;-62
2023/05/09 13:35:57;;;;;;;2.63;2.00;;;22.30;99.90;;;;;;5079794;28;20753;-63
2023/05/09 13:38:24;;;;;;;5.32;2.20;;;22.10;99.90;;;;;;5073279;28;20981;-64
2023/05/09 13:40:52;;;;;;;3.72;2.05;;;22.00;99.90;;;;;;5080626;28;20447;-62
2023/05/09 13:43:18;;;;;;;2.80;2.00;;;22.30;99.90;;;;;;5081323;28;20941;-61
2023/05/09 13:45:45;;;;;;;3.25;2.08;;;22.40;99.90;;;;;;5080346;28;20407;-61
2023/05/09 13:48:12;;;;;;;4.10;2.42;;;22.40;99.90;;;;;;5077581;28;20963;-66
2023/05/09 13:50:39;;;;;;;4.03;2.33;;;22.20;99.90;;;;;;5077642;28;20907;-62
2023/05/09 13:53:05;;;;;;;3.85;2.53;;;22.10;99.90;;;;;;5079432;28;20952;-61
2023/05/09 13:55:33;;;;;;;2.75;2.30;;;21.80;99.90;;;;;;5078824;28;20769;-64
2023/05/09 13:58:01;;;;;;;4.30;2.70;;;22.10;99.90;;;;;;5082211;28;20477;-62